createdAt,value
2018-06-22T00:00:32.087Z,1011.02
2018-06-22T00:01:42.046Z,1010.99
2018-06-22T00:02:51.761Z,1011.04
2018-06-22T00:04:01.743Z,1011.02
2018-06-22T00:05:11.477Z,1011.06
2018-06-22T00:06:21.180Z,1011.05
2018-06-22T00:07:31.155Z,1011.11
2018-06-22T00:08:41.117Z,1011.17
2018-06-22T00:09:50.826Z,1011.04
2018-06-22T00:11:00.538Z,1011.03
2018-06-22T00:12:10.501Z,1011.18
2018-06-22T00:13:20.481Z,1011.05
2018-06-22T00:14:30.500Z,1011.09
2018-06-22T00:15:40.214Z,1011.12
2018-06-22T00:16:49.917Z,1011.01
2018-06-22T00:17:59.941Z,1011.02
2018-06-22T00:19:09.900Z,1011.13
2018-06-22T00:20:19.868Z,1011.1
2018-06-22T00:21:29.846Z,1011.07
2018-06-22T00:22:39.805Z,1011.05
2018-06-22T00:23:49.524Z,1011.12
2018-06-22T00:24:59.227Z,1011.05
2018-06-22T00:26:09.189Z,1011.07
2018-06-22T00:27:19.153Z,1011.13
2018-06-22T00:28:28.884Z,1011.04
2018-06-22T00:29:38.341Z,1010.99
2018-06-22T00:30:48.300Z,1011.05
2018-06-22T00:31:58.262Z,1011.08
2018-06-22T00:33:08.240Z,1011.08
2018-06-22T00:34:18.199Z,1011.06
2018-06-22T00:35:28.172Z,1011.07
2018-06-22T00:36:37.874Z,1011.05
2018-06-22T00:37:47.585Z,1011.07
2018-06-22T00:38:57.548Z,1011.04
2018-06-22T00:40:07.522Z,1011.08
2018-06-22T00:41:17.475Z,1010.99
2018-06-22T00:42:27.433Z,1011.15
2018-06-22T00:43:37.403Z,1010.98
2018-06-22T00:44:47.353Z,1011
2018-06-22T00:45:57.312Z,1010.98
2018-06-22T00:47:07.277Z,1011.02
2018-06-22T00:48:16.987Z,1011.05
2018-06-22T00:49:26.691Z,1011.02
2018-06-22T00:50:36.653Z,1010.97
2018-06-22T00:51:46.615Z,1010.9
2018-06-22T00:52:56.584Z,1010.93
2018-06-22T00:54:06.553Z,1010.96
2018-06-22T00:55:16.513Z,1010.87
2018-06-22T00:56:26.464Z,1010.88
2018-06-22T00:57:35.910Z,1010.85
2018-06-22T00:58:45.876Z,1010.89
2018-06-22T00:59:55.838Z,1010.88
2018-06-22T01:01:05.538Z,1010.89
2018-06-22T01:02:15.501Z,1010.9
2018-06-22T01:03:25.223Z,1010.89
2018-06-22T01:04:34.712Z,1010.87
2018-06-22T01:05:44.426Z,1010.87
2018-06-22T01:06:54.133Z,1010.91
2018-06-22T01:08:04.088Z,1010.83
2018-06-22T01:09:14.045Z,1010.8
2018-06-22T01:10:23.491Z,1010.8
2018-06-22T01:11:33.189Z,1010.78
2018-06-22T01:12:43.159Z,1010.79
2018-06-22T01:13:52.869Z,1010.79
2018-06-22T01:15:02.943Z,1010.78
2018-06-22T01:16:12.650Z,1010.78
2018-06-22T01:17:22.660Z,1010.81
2018-06-22T01:18:32.682Z,1010.71
2018-06-22T01:19:42.190Z,1010.75
2018-06-22T01:20:52.207Z,1010.78
2018-06-22T01:22:02.182Z,1010.87
2018-06-22T01:23:12.059Z,1010.72
2018-06-22T01:24:22.060Z,1010.78
2018-06-22T01:25:31.763Z,1010.74
2018-06-22T01:26:41.467Z,1010.8
2018-06-22T01:27:51.426Z,1010.82
2018-06-22T01:29:01.133Z,1010.76
2018-06-22T01:30:10.837Z,1010.76
2018-06-22T01:31:20.804Z,1010.74
2018-06-22T01:32:30.768Z,1010.75
2018-06-22T01:33:40.721Z,1010.69
2018-06-22T01:34:50.430Z,1010.72
2018-06-22T01:36:00.391Z,1010.72
2018-06-22T01:37:10.358Z,1010.7
2018-06-22T01:38:20.329Z,1010.67
2018-06-22T01:39:30.040Z,1010.75
2018-06-22T01:40:39.735Z,1010.68
2018-06-22T01:41:49.437Z,1010.64
2018-06-22T01:42:59.404Z,1010.68
2018-06-22T01:44:09.115Z,1010.64
2018-06-22T01:45:18.822Z,1010.68
2018-06-22T01:46:28.782Z,1010.62
2018-06-22T01:47:38.741Z,1010.54
2018-06-22T01:48:48.702Z,1010.68
2018-06-22T01:49:58.671Z,1010.61
2018-06-22T01:51:08.633Z,1010.51
2018-06-22T01:52:18.589Z,1010.53
2018-06-22T01:53:28.548Z,1010.7
2018-06-22T01:54:38.248Z,1010.65
2018-06-22T01:55:48.220Z,1010.79
2018-06-22T01:56:58.179Z,1010.59
2018-06-22T01:58:08.137Z,1010.74
2018-06-22T01:59:17.835Z,1010.63
2018-06-22T02:00:27.576Z,1010.56
2018-06-22T02:01:37.549Z,1010.73
2018-06-22T02:02:47.507Z,1010.64
2018-06-22T02:03:57.463Z,1010.57
2018-06-22T02:05:07.446Z,1010.6
2018-06-22T02:06:17.410Z,1010.67
2018-06-22T02:07:27.375Z,1010.65
2018-06-22T02:08:36.570Z,1010.76
2018-06-22T02:09:46.575Z,1010.62
2018-06-22T02:10:56.285Z,1010.77
2018-06-22T02:12:06.253Z,1010.58
2018-06-22T02:13:16.201Z,1010.62
2018-06-22T02:14:25.896Z,1010.62
2018-06-22T02:15:36.093Z,1010.64
2018-06-22T02:16:46.062Z,1010.58
2018-06-22T02:17:56.044Z,1010.63
2018-06-22T02:19:06.023Z,1010.58
2018-06-22T02:20:15.749Z,1010.55
2018-06-22T02:21:25.714Z,1010.64
2018-06-22T02:22:35.688Z,1010.62
2018-06-22T02:23:45.647Z,1010.62
2018-06-22T02:24:55.361Z,1010.57
2018-06-22T02:26:05.314Z,1010.65
2018-06-22T02:27:15.339Z,1010.54
2018-06-22T02:28:24.788Z,1010.43
2018-06-22T02:29:34.762Z,1010.52
2018-06-22T02:30:44.720Z,1010.5
2018-06-22T02:31:54.683Z,1010.54
2018-06-22T02:33:04.136Z,1010.7
2018-06-22T02:34:14.093Z,1010.48
2018-06-22T02:35:24.054Z,1010.5
2018-06-22T02:36:34.041Z,1010.58
2018-06-22T02:37:44.008Z,1010.5
2018-06-22T02:38:53.991Z,1010.58
2018-06-22T02:40:03.952Z,1010.71
2018-06-22T02:41:13.929Z,1010.53
2018-06-22T02:42:23.895Z,1010.55
2018-06-22T02:43:33.605Z,1010.52
2018-06-22T02:44:43.571Z,1010.48
2018-06-22T02:45:53.278Z,1010.55
2018-06-22T02:47:02.985Z,1010.52
2018-06-22T02:48:12.937Z,1010.57
2018-06-22T02:49:22.903Z,1010.59
2018-06-22T02:50:32.611Z,1010.53
2018-06-22T02:51:42.577Z,1010.54
2018-06-22T02:52:52.557Z,1010.52
2018-06-22T02:54:02.261Z,1010.61
2018-06-22T02:55:11.714Z,1010.62
2018-06-22T02:56:21.695Z,1010.52
2018-06-22T02:57:31.409Z,1010.51
2018-06-22T02:58:40.862Z,1010.57
2018-06-22T02:59:50.615Z,1010.55
2018-06-22T03:01:00.507Z,1010.87
2018-06-22T03:02:10.473Z,1010.64
2018-06-22T03:03:20.445Z,1010.64
2018-06-22T03:04:29.934Z,1010.66
2018-06-22T03:05:39.898Z,1010.65
2018-06-22T03:06:49.860Z,1010.59
2018-06-22T03:07:59.829Z,1010.59
2018-06-22T03:09:09.806Z,1010.82
2018-06-22T03:10:19.780Z,1010.55
2018-06-22T03:11:29.815Z,1010.74
2018-06-22T03:12:39.798Z,1010.62
2018-06-22T03:13:49.758Z,1010.74
2018-06-22T03:14:59.713Z,1010.58
2018-06-22T03:16:09.708Z,1010.6
2018-06-22T03:17:19.681Z,1010.52
2018-06-22T03:18:29.664Z,1010.54
2018-06-22T03:19:39.638Z,1010.53
2018-06-22T03:20:49.342Z,1010.58
2018-06-22T03:21:59.314Z,1010.66
2018-06-22T03:23:09.269Z,1010.78
2018-06-22T03:24:19.240Z,1010.55
2018-06-22T03:25:29.246Z,1010.49
2018-06-22T03:26:39.209Z,1010.63
2018-06-22T03:27:49.174Z,1010.56
2018-06-22T03:28:59.134Z,1010.53
2018-06-22T03:30:08.844Z,1010.52
2018-06-22T03:31:18.810Z,1010.51
2018-06-22T03:32:28.785Z,1010.58
2018-06-22T03:33:38.497Z,1010.53
2018-06-22T03:34:48.475Z,1010.49
2018-06-22T03:35:58.172Z,1010.64
2018-06-22T03:37:08.140Z,1010.55
2018-06-22T03:38:17.850Z,1010.58
2018-06-22T03:39:27.572Z,1010.54
2018-06-22T03:40:38.007Z,1010.62
2018-06-22T03:41:47.975Z,1010.53
2018-06-22T03:42:57.958Z,1010.58
2018-06-22T03:44:07.151Z,1010.49
2018-06-22T03:45:16.872Z,1010.6
2018-06-22T03:46:26.572Z,1010.51
2018-06-22T03:47:36.541Z,1010.51
2018-06-22T03:48:46.268Z,1010.6
2018-06-22T03:49:56.226Z,1010.5
2018-06-22T03:51:05.936Z,1010.53
2018-06-22T03:52:15.897Z,1010.62
2018-06-22T03:53:25.854Z,1010.51
2018-06-22T03:54:35.546Z,1010.51
2018-06-22T03:55:45.505Z,1010.53
2018-06-22T03:56:55.468Z,1010.51
2018-06-22T03:58:05.430Z,1010.55
2018-06-22T03:59:15.380Z,1010.61
2018-06-22T04:00:25.348Z,1010.61
2018-06-22T04:01:35.304Z,1010.49
2018-06-22T04:02:44.750Z,1010.61
2018-06-22T04:03:54.708Z,1010.52
2018-06-22T04:05:04.668Z,1010.72
2018-06-22T04:06:14.631Z,1010.69
2018-06-22T04:07:24.595Z,1010.56
2018-06-22T04:08:34.565Z,1010.52
2018-06-22T04:09:44.284Z,1010.53
2018-06-22T04:10:54.250Z,1010.55
2018-06-22T04:12:04.213Z,1010.56
2018-06-22T04:13:14.169Z,1010.63
2018-06-22T04:14:23.881Z,1010.63
2018-06-22T04:15:33.327Z,1010.49
2018-06-22T04:16:43.035Z,1010.56
2018-06-22T04:17:52.997Z,1010.51
2018-06-22T04:19:02.691Z,1010.58
2018-06-22T04:20:12.663Z,1010.46
2018-06-22T04:21:22.617Z,1010.49
2018-06-22T04:22:32.329Z,1010.51
2018-06-22T04:23:42.292Z,1010.53
2018-06-22T04:24:52.254Z,1010.49
2018-06-22T04:26:02.223Z,1010.43
2018-06-22T04:27:12.236Z,1010.52
2018-06-22T04:28:22.203Z,1010.53
2018-06-22T04:29:32.153Z,1010.5
2018-06-22T04:30:42.153Z,1010.46
2018-06-22T04:31:52.127Z,1010.51
2018-06-22T04:33:02.111Z,1010.45
2018-06-22T04:34:12.097Z,1010.46
2018-06-22T04:35:22.090Z,1010.46
2018-06-22T04:36:32.052Z,1010.5
2018-06-22T04:37:41.767Z,1010.43
2018-06-22T04:38:51.742Z,1010.41
2018-06-22T04:40:01.709Z,1010.41
2018-06-22T04:41:11.429Z,1010.36
2018-06-22T04:42:21.129Z,1010.47
2018-06-22T04:43:30.831Z,1010.5
2018-06-22T04:44:40.786Z,1010.42
2018-06-22T04:45:50.499Z,1010.39
2018-06-22T04:47:00.460Z,1010.42
2018-06-22T04:48:09.652Z,1010.44
2018-06-22T04:49:18.837Z,1010.38
2018-06-22T04:50:28.814Z,1010.38
2018-06-22T04:51:38.518Z,1010.44
2018-06-22T04:52:48.476Z,1010.41
2018-06-22T04:53:58.457Z,1010.36
2018-06-22T04:55:08.164Z,1010.38
2018-06-22T04:56:18.170Z,1010.42
2018-06-22T04:57:28.322Z,1010.42
2018-06-22T04:58:38.296Z,1010.39
2018-06-22T04:59:48.007Z,1010.41
2018-06-22T05:00:57.463Z,1010.39
2018-06-22T05:02:07.212Z,1010.39
2018-06-22T05:03:17.183Z,1010.42
2018-06-22T05:04:26.641Z,1010.51
2018-06-22T05:05:36.368Z,1010.52
2018-06-22T05:06:46.325Z,1010.5
2018-06-22T05:07:56.304Z,1010.51
2018-06-22T05:09:06.262Z,1010.5
2018-06-22T05:10:16.306Z,1010.46
2018-06-22T05:11:26.014Z,1010.42
2018-06-22T05:12:35.976Z,1010.44
2018-06-22T05:13:45.687Z,1010.49
2018-06-22T05:14:55.402Z,1010.5
2018-06-22T05:16:04.912Z,1010.5
2018-06-22T05:17:14.653Z,1010.51
2018-06-22T05:18:24.612Z,1010.48
2018-06-22T05:19:34.584Z,1010.46
2018-06-22T05:20:44.294Z,1010.63
2018-06-22T05:21:54.273Z,1010.51
2018-06-22T05:23:03.711Z,1010.52
2018-06-22T05:24:13.725Z,1010.47
2018-06-22T05:25:23.448Z,1010.52
2018-06-22T05:26:33.158Z,1010.49
2018-06-22T05:27:43.134Z,1010.48
2018-06-22T05:28:53.101Z,1010.48
2018-06-22T05:30:03.067Z,1010.58
2018-06-22T05:31:12.781Z,1010.39
2018-06-22T05:32:22.741Z,1010.43
2018-06-22T05:33:32.505Z,1010.44
2018-06-22T05:34:42.214Z,1010.6
2018-06-22T05:35:51.957Z,1010.47
2018-06-22T05:37:01.937Z,1010.44
2018-06-22T05:38:11.922Z,1010.42
2018-06-22T05:39:21.892Z,1010.38
2018-06-22T05:40:31.874Z,1010.38
2018-06-22T05:41:41.846Z,1010.42
2018-06-22T05:42:51.846Z,1010.38
2018-06-22T05:44:01.546Z,1010.45
2018-06-22T05:45:10.987Z,1010.38
2018-06-22T05:46:20.717Z,1010.38
2018-06-22T05:47:30.689Z,1010.42
2018-06-22T05:48:40.666Z,1010.53
2018-06-22T05:49:50.677Z,1010.45
2018-06-22T05:51:00.451Z,1010.35
2018-06-22T05:52:10.394Z,1010.47
2018-06-22T05:53:20.406Z,1010.42
2018-06-22T05:54:30.378Z,1010.39
2018-06-22T05:55:40.372Z,1010.43
2018-06-22T05:56:50.152Z,1010.43
2018-06-22T05:58:00.361Z,1010.4
2018-06-22T05:59:10.343Z,1010.44
2018-06-22T06:00:20.452Z,1010.46
2018-06-22T06:01:30.236Z,1010.53
2018-06-22T06:02:40.208Z,1010.46
2018-06-22T06:03:49.930Z,1010.49
2018-06-22T06:04:59.895Z,1010.46
2018-06-22T06:06:09.620Z,1010.54
2018-06-22T06:07:19.327Z,1010.56
2018-06-22T06:08:29.307Z,1010.54
2018-06-22T06:09:39.029Z,1010.51
2018-06-22T06:10:49.009Z,1010.48
2018-06-22T06:11:58.979Z,1010.64
2018-06-22T06:13:08.943Z,1010.41
2018-06-22T06:14:18.664Z,1010.45
2018-06-22T06:15:28.639Z,1010.39
2018-06-22T06:16:38.359Z,1010.37
2018-06-22T06:17:48.065Z,1010.4
2018-06-22T06:18:57.809Z,1010.42
2018-06-22T06:20:07.881Z,1010.37
2018-06-22T06:21:18.055Z,1010.38
2018-06-22T06:22:28.032Z,1010.37
2018-06-22T06:23:38.011Z,1010.39
2018-06-22T06:24:47.982Z,1010.53
2018-06-22T06:25:57.957Z,1010.45
2018-06-22T06:27:07.925Z,1010.37
2018-06-22T06:28:17.777Z,1010.53
2018-06-22T06:29:27.740Z,1010.5
2018-06-22T06:30:36.951Z,1010.4
2018-06-22T06:31:46.931Z,1010.48
2018-06-22T06:32:56.866Z,1010.43
2018-06-22T06:34:06.831Z,1010.4
2018-06-22T06:35:16.929Z,1010.4
2018-06-22T06:36:26.897Z,1010.46
2018-06-22T06:37:36.621Z,1010.55
2018-06-22T06:38:46.593Z,1010.56
2018-06-22T06:39:56.608Z,1010.54
2018-06-22T06:41:06.093Z,1010.39
2018-06-22T06:42:16.054Z,1010.51
2018-06-22T06:43:25.978Z,1010.47
2018-06-22T06:44:35.967Z,1010.45
2018-06-22T06:45:45.960Z,1010.51
2018-06-22T06:46:55.954Z,1010.45
2018-06-22T06:48:05.932Z,1010.57
2018-06-22T06:49:15.903Z,1010.42
2018-06-22T06:50:25.873Z,1010.54
2018-06-22T06:51:35.847Z,1010.39
2018-06-22T06:52:45.317Z,1010.42
2018-06-22T06:53:54.767Z,1010.44
2018-06-22T06:55:04.473Z,1010.48
2018-06-22T06:56:14.193Z,1010.41
2018-06-22T06:57:24.161Z,1010.46
2018-06-22T06:58:34.134Z,1010.51
2018-06-22T06:59:43.862Z,1010.34
2018-06-22T07:00:53.845Z,1010.43
2018-06-22T07:02:03.579Z,1010.47
2018-06-22T07:03:13.555Z,1010.47
2018-06-22T07:04:23.526Z,1010.47
2018-06-22T07:05:33.497Z,1010.5
2018-06-22T07:06:43.208Z,1010.45
2018-06-22T07:07:53.159Z,1010.52
2018-06-22T07:09:03.112Z,1010.6
2018-06-22T07:10:13.096Z,1010.5
2018-06-22T07:11:23.059Z,1010.54
2018-06-22T07:12:33.030Z,1010.51
2018-06-22T07:13:42.739Z,1010.69
2018-06-22T07:14:52.460Z,1010.68
2018-06-22T07:16:02.429Z,1010.6
2018-06-22T07:17:12.183Z,1010.7
2018-06-22T07:18:22.261Z,1010.55
2018-06-22T07:19:31.984Z,1010.54
2018-06-22T07:20:41.719Z,1010.62
2018-06-22T07:21:51.430Z,1010.52
2018-06-22T07:23:01.141Z,1010.62
2018-06-22T07:24:10.843Z,1010.61
2018-06-22T07:25:20.817Z,1010.66
2018-06-22T07:26:30.808Z,1010.69
2018-06-22T07:27:40.797Z,1010.68
2018-06-22T07:28:50.513Z,1010.65
2018-06-22T07:30:00.480Z,1010.79
2018-06-22T07:31:10.457Z,1010.74
2018-06-22T07:32:20.170Z,1010.77
2018-06-22T07:33:29.878Z,1010.74
2018-06-22T07:34:39.844Z,1010.83
2018-06-22T07:35:49.547Z,1010.68
2018-06-22T07:36:59.721Z,1010.63
2018-06-22T07:38:09.453Z,1010.73
2018-06-22T07:39:19.181Z,1010.64
2018-06-22T07:40:28.908Z,1010.72
2018-06-22T07:41:38.618Z,1010.62
2018-06-22T07:42:48.638Z,1010.7
2018-06-22T07:43:58.379Z,1010.8
2018-06-22T07:45:08.405Z,1010.81
2018-06-22T07:46:18.374Z,1010.7
2018-06-22T07:47:28.338Z,1010.69
2018-06-22T07:48:38.079Z,1010.76
2018-06-22T07:49:48.067Z,1010.79
2018-06-22T07:50:57.936Z,1010.76
2018-06-22T07:52:07.912Z,1010.68
2018-06-22T07:53:17.885Z,1010.64
2018-06-22T07:54:27.857Z,1010.76
2018-06-22T07:55:37.850Z,1010.72
2018-06-22T07:56:47.560Z,1010.73
2018-06-22T07:57:57.336Z,1010.75
2018-06-22T07:59:07.387Z,1010.85
2018-06-22T08:00:17.355Z,1010.7
2018-06-22T08:01:26.804Z,1010.78
2018-06-22T08:02:36.508Z,1010.73
2018-06-22T08:03:46.297Z,1010.77
2018-06-22T08:04:56.292Z,1010.81
2018-06-22T08:06:06.266Z,1010.73
2018-06-22T08:07:16.047Z,1010.84
2018-06-22T08:08:26.031Z,1010.81
2018-06-22T08:09:36.007Z,1010.81
2018-06-22T08:10:45.718Z,1010.82
2018-06-22T08:11:55.806Z,1010.85
2018-06-22T08:13:05.855Z,1010.79
2018-06-22T08:14:15.589Z,1010.82
2018-06-22T08:15:25.565Z,1010.85
2018-06-22T08:16:35.535Z,1010.86
2018-06-22T08:17:45.652Z,1010.98
2018-06-22T08:18:55.161Z,1010.9
2018-06-22T08:20:05.117Z,1010.97
2018-06-22T08:21:15.104Z,1011.04
2018-06-22T08:22:25.063Z,1011.05
2018-06-22T08:23:35.032Z,1011.1
2018-06-22T08:24:44.858Z,1011.07
2018-06-22T08:25:54.832Z,1010.99
2018-06-22T08:27:04.563Z,1010.96
2018-06-22T08:28:14.591Z,1011.22
2018-06-22T08:29:24.047Z,1011.04
2018-06-22T08:30:33.777Z,1011.06
2018-06-22T08:31:43.488Z,1011.14
2018-06-22T08:32:53.469Z,1011.07
2018-06-22T08:34:03.444Z,1011.1
2018-06-22T08:35:13.436Z,1011.15
2018-06-22T08:36:23.175Z,1011.06
2018-06-22T08:37:33.169Z,1011.13
2018-06-22T08:38:42.883Z,1011.1
2018-06-22T08:39:52.621Z,1011.15
2018-06-22T08:41:02.621Z,1011.17
2018-06-22T08:42:12.748Z,1011.13
2018-06-22T08:43:23.042Z,1011.2
2018-06-22T08:44:33.037Z,1011.18
2018-06-22T08:45:42.784Z,1011.31
2018-06-22T08:46:52.499Z,1011.19
2018-06-22T08:48:02.468Z,1011.11
2018-06-22T08:49:12.465Z,1011.27
2018-06-22T08:50:22.421Z,1011.16
2018-06-22T08:51:32.394Z,1011.2
2018-06-22T08:52:42.366Z,1011.21
2018-06-22T08:53:52.357Z,1011.3
2018-06-22T08:55:02.073Z,1011.25
2018-06-22T08:56:12.056Z,1011.29
2018-06-22T08:57:21.833Z,1011.25
2018-06-22T08:58:31.576Z,1011.26
2018-06-22T08:59:41.035Z,1011.27
2018-06-22T09:00:50.762Z,1011.3
2018-06-22T09:02:00.737Z,1011.28
2018-06-22T09:03:10.699Z,1011.21
2018-06-22T09:04:20.683Z,1011.26
2018-06-22T09:05:30.687Z,1011.3
2018-06-22T09:06:40.697Z,1011.24
2018-06-22T09:07:50.683Z,1011.29
2018-06-22T09:09:00.687Z,1011.24
2018-06-22T09:10:10.658Z,1011.3
2018-06-22T09:11:20.640Z,1011.27
2018-06-22T09:12:30.620Z,1011.35
2018-06-22T09:13:41.160Z,1011.25
2018-06-22T09:14:50.886Z,1011.31
2018-06-22T09:16:00.611Z,1011.3
2018-06-22T09:17:10.589Z,1011.33
2018-06-22T09:18:20.571Z,1011.23
2018-06-22T09:19:30.590Z,1011.22
2018-06-22T09:20:40.721Z,1011.29
2018-06-22T09:21:50.442Z,1011.27
2018-06-22T09:23:00.170Z,1011.29
2018-06-22T09:24:10.153Z,1011.23
2018-06-22T09:25:20.204Z,1011.26
2018-06-22T09:26:30.139Z,1011.28
2018-06-22T09:27:40.113Z,1011.32
2018-06-22T09:28:50.095Z,1011.26
2018-06-22T09:30:00.100Z,1011.4
2018-06-22T09:31:10.091Z,1011.32
2018-06-22T09:32:20.208Z,1011.22
2018-06-22T09:33:30.191Z,1011.29
2018-06-22T09:34:40.164Z,1011.32
2018-06-22T09:35:50.163Z,1011.35
2018-06-22T09:37:00.147Z,1011.25
2018-06-22T09:38:09.860Z,1011.38
2018-06-22T09:39:19.849Z,1011.44
2018-06-22T09:40:29.579Z,1011.61
2018-06-22T09:41:39.301Z,1011.82
2018-06-22T09:42:49.116Z,1011.91
2018-06-22T09:43:59.213Z,1011.79
2018-06-22T09:45:09.263Z,1011.8
2018-06-22T09:46:19.524Z,1011.7
2018-06-22T09:47:29.248Z,1011.87
2018-06-22T09:48:39.214Z,1011.53
2018-06-22T09:49:49.208Z,1011.71
2018-06-22T09:50:59.192Z,1011.54
2018-06-22T09:52:09.185Z,1011.67
2018-06-22T09:53:18.931Z,1011.51
2018-06-22T09:54:28.656Z,1011.58
2018-06-22T09:55:38.710Z,1011.6
2018-06-22T09:56:48.679Z,1011.59
2018-06-22T09:57:58.382Z,1011.61
2018-06-22T09:59:08.416Z,1011.57
2018-06-22T10:00:18.392Z,1011.65
2018-06-22T10:01:27.596Z,1011.67
2018-06-22T10:02:37.315Z,1011.61
2018-06-22T10:03:47.053Z,1011.6
2018-06-22T10:04:57.097Z,1011.64
2018-06-22T10:06:06.841Z,1011.61
2018-06-22T10:07:17.058Z,1011.69
2018-06-22T10:08:27.020Z,1011.78
2018-06-22T10:09:37.040Z,1011.78
2018-06-22T10:10:46.760Z,1011.66
2018-06-22T10:11:56.247Z,1011.83
2018-06-22T10:13:05.971Z,1011.82
2018-06-22T10:14:15.986Z,1011.74
2018-06-22T10:15:25.989Z,1011.73
2018-06-22T10:16:35.700Z,1011.78
2018-06-22T10:17:45.691Z,1011.84
2018-06-22T10:18:55.680Z,1011.81
2018-06-22T10:20:05.464Z,1011.73
2018-06-22T10:21:15.645Z,1011.79
2018-06-22T10:22:25.669Z,1011.75
2018-06-22T10:23:35.908Z,1011.73
2018-06-22T10:24:45.901Z,1011.75
2018-06-22T10:25:55.885Z,1011.74
2018-06-22T10:27:05.928Z,1011.76
2018-06-22T10:28:16.064Z,1011.96
2018-06-22T10:29:26.061Z,1011.87
2018-06-22T10:30:36.044Z,1011.75
2018-06-22T10:31:46.041Z,1011.91
2018-06-22T10:32:55.770Z,1011.89
2018-06-22T10:34:05.757Z,1011.85
2018-06-22T10:35:15.764Z,1011.92
2018-06-22T10:36:25.770Z,1011.84
2018-06-22T10:37:35.486Z,1011.77
2018-06-22T10:38:45.241Z,1011.78
2018-06-22T10:39:55.226Z,1011.75
2018-06-22T10:41:05.225Z,1011.73
2018-06-22T10:42:14.714Z,1011.78
2018-06-22T10:43:24.550Z,1011.78
2018-06-22T10:44:34.534Z,1011.78
2018-06-22T10:45:43.990Z,1011.75
2018-06-22T10:46:54.163Z,1011.78
2018-06-22T10:48:03.632Z,1011.68
2018-06-22T10:49:13.608Z,1011.7
2018-06-22T10:50:23.582Z,1011.7
2018-06-22T10:51:33.639Z,1011.76
2018-06-22T10:52:43.736Z,1011.65
2018-06-22T10:53:53.730Z,1011.49
2018-06-22T10:55:03.722Z,1011.58
2018-06-22T10:56:13.693Z,1011.54
2018-06-22T10:57:23.673Z,1011.53
2018-06-22T10:58:33.678Z,1011.5
2018-06-22T10:59:44.035Z,1011.49
2018-06-22T11:00:54.318Z,1011.53
2018-06-22T11:02:04.321Z,1011.5
2018-06-22T11:03:14.316Z,1011.52
2018-06-22T11:04:24.317Z,1011.53
2018-06-22T11:05:34.303Z,1011.51
2018-06-22T11:06:44.243Z,1011.48
2018-06-22T11:07:54.244Z,1011.47
2018-06-22T11:09:04.277Z,1011.54
2018-06-22T11:10:14.264Z,1011.49
2018-06-22T11:11:24.009Z,1011.47
2018-06-22T11:12:34.040Z,1011.52
2018-06-22T11:13:43.776Z,1011.52
2018-06-22T11:14:53.833Z,1011.42
2018-06-22T11:16:03.571Z,1011.51
2018-06-22T11:17:13.594Z,1011.44
2018-06-22T11:18:23.978Z,1011.41
2018-06-22T11:19:34.203Z,1011.44
2018-06-22T11:20:44.187Z,1011.42
2018-06-22T11:21:54.179Z,1011.37
2018-06-22T11:23:04.164Z,1011.31
2018-06-22T11:24:14.153Z,1011.37
2018-06-22T11:25:24.149Z,1011.39
2018-06-22T11:26:34.159Z,1011.43
2018-06-22T11:27:43.914Z,1011.41
2018-06-22T11:28:53.627Z,1011.36
2018-06-22T11:30:03.610Z,1011.51
2018-06-22T11:31:13.323Z,1011.59
2018-06-22T11:32:23.491Z,1011.61
2018-06-22T11:33:33.469Z,1012.25
2018-06-22T11:34:43.207Z,1011.83
2018-06-22T11:35:53.369Z,1011.83
2018-06-22T11:37:03.452Z,1011.72
2018-06-22T11:38:13.449Z,1011.8
2018-06-22T11:39:23.422Z,1011.91
2018-06-22T11:40:33.371Z,1011.76
2018-06-22T11:41:43.098Z,1011.96
2018-06-22T11:42:53.097Z,1011.88
2018-06-22T11:44:03.107Z,1011.78
2018-06-22T11:45:13.076Z,1011.76
2018-06-22T11:46:23.056Z,1011.78
2018-06-22T11:47:32.777Z,1011.87
2018-06-22T11:48:43.060Z,1011.82
2018-06-22T11:49:53.304Z,1011.88
2018-06-22T11:51:03.074Z,1011.85
2018-06-22T11:52:13.335Z,1011.91
2018-06-22T11:53:23.106Z,1011.93
2018-06-22T11:54:32.826Z,1011.9
2018-06-22T11:55:42.796Z,1011.96
2018-06-22T11:56:52.770Z,1011.97
2018-06-22T11:58:02.500Z,1011.83
2018-06-22T11:59:12.499Z,1011.87
2018-06-22T12:00:22.649Z,1011.89
2018-06-22T12:01:32.866Z,1011.84
2018-06-22T12:02:43.110Z,1011.93
2018-06-22T12:03:53.136Z,1011.9
2018-06-22T12:05:03.105Z,1011.89
2018-06-22T12:06:13.086Z,1011.85
2018-06-22T12:07:22.793Z,1011.95
2018-06-22T12:08:32.783Z,1011.9
2018-06-22T12:09:42.759Z,1011.92
2018-06-22T12:10:53.001Z,1011.93
2018-06-22T12:12:02.978Z,1011.88
2018-06-22T12:13:12.954Z,1011.91
2018-06-22T12:14:22.666Z,1011.95
2018-06-22T12:15:32.668Z,1011.92
2018-06-22T12:16:42.655Z,1011.86
2018-06-22T12:17:52.643Z,1011.94
2018-06-22T12:19:02.676Z,1011.88
2018-06-22T12:20:13.218Z,1011.91
2018-06-22T12:21:22.941Z,1011.93
2018-06-22T12:22:32.907Z,1011.91
2018-06-22T12:23:42.884Z,1011.93
2018-06-22T12:24:52.603Z,1011.93
2018-06-22T12:26:02.333Z,1011.98
2018-06-22T12:27:12.326Z,1012.01
2018-06-22T12:28:22.058Z,1011.98
2018-06-22T12:29:32.035Z,1011.97
2018-06-22T12:30:42.016Z,1012.01
2018-06-22T12:31:51.996Z,1011.97
2018-06-22T12:33:02.026Z,1012.05
2018-06-22T12:34:12.268Z,1011.97
2018-06-22T12:35:22.249Z,1012
2018-06-22T12:36:31.715Z,1012.01
2018-06-22T12:37:41.449Z,1011.96
2018-06-22T12:38:51.435Z,1011.91
2018-06-22T12:40:01.434Z,1011.89
2018-06-22T12:41:11.457Z,1011.93
2018-06-22T12:42:21.439Z,1011.99
2018-06-22T12:43:31.167Z,1011.92
2018-06-22T12:44:41.144Z,1011.89
2018-06-22T12:45:51.132Z,1011.96
2018-06-22T12:47:01.121Z,1011.9
2018-06-22T12:48:11.152Z,1011.92
2018-06-22T12:49:21.131Z,1011.9
2018-06-22T12:50:30.941Z,1011.94
2018-06-22T12:51:40.797Z,1011.92
2018-06-22T12:52:50.784Z,1011.9
2018-06-22T12:54:00.780Z,1011.9
2018-06-22T12:55:10.755Z,1011.85
2018-06-22T12:56:20.743Z,1011.87
2018-06-22T12:57:30.515Z,1011.78
2018-06-22T12:58:40.701Z,1011.95
2018-06-22T12:59:50.691Z,1011.89
2018-06-22T13:01:00.895Z,1011.9
2018-06-22T13:02:10.903Z,1011.88
2018-06-22T13:03:20.893Z,1011.93
2018-06-22T13:04:30.631Z,1011.83
2018-06-22T13:05:40.638Z,1011.91
2018-06-22T13:06:50.635Z,1011.89
2018-06-22T13:08:00.622Z,1011.77
2018-06-22T13:09:10.374Z,1011.79
2018-06-22T13:10:20.485Z,1011.82
2018-06-22T13:11:30.504Z,1011.92
2018-06-22T13:12:40.484Z,1011.84
2018-06-22T13:13:50.483Z,1011.8
2018-06-22T13:15:00.194Z,1011.86
2018-06-22T13:16:09.646Z,1011.84
2018-06-22T13:17:19.629Z,1011.86
2018-06-22T13:18:29.358Z,1011.82
2018-06-22T13:19:39.334Z,1011.77
2018-06-22T13:20:49.314Z,1011.84
2018-06-22T13:21:59.300Z,1011.74
2018-06-22T13:23:09.103Z,1011.85
2018-06-22T13:24:19.165Z,1011.76
2018-06-22T13:25:28.886Z,1011.84
2018-06-22T13:26:38.909Z,1011.82
2018-06-22T13:27:48.893Z,1011.84
2018-06-22T13:28:58.612Z,1011.85
2018-06-22T13:30:08.347Z,1011.82
2018-06-22T13:31:18.086Z,1011.85
2018-06-22T13:32:28.062Z,1011.8
2018-06-22T13:33:38.039Z,1011.74
2018-06-22T13:34:47.759Z,1011.81
2018-06-22T13:35:57.471Z,1011.77
2018-06-22T13:37:07.477Z,1011.76
2018-06-22T13:38:17.456Z,1011.69
2018-06-22T13:39:27.531Z,1011.77
2018-06-22T13:40:37.243Z,1011.7
2018-06-22T13:41:46.963Z,1011.71
2018-06-22T13:42:56.725Z,1011.68
2018-06-22T13:44:06.200Z,1011.69
2018-06-22T13:45:16.212Z,1011.76
2018-06-22T13:46:25.933Z,1011.82
2018-06-22T13:47:35.654Z,1011.64
2018-06-22T13:48:45.633Z,1011.66
2018-06-22T13:49:55.630Z,1011.67
2018-06-22T13:51:05.470Z,1011.7
2018-06-22T13:52:15.182Z,1011.93
2018-06-22T13:53:25.158Z,1011.62
2018-06-22T13:54:34.889Z,1011.77
2018-06-22T13:55:44.933Z,1011.84
2018-06-22T13:56:54.959Z,1011.86
2018-06-22T13:58:05.702Z,1011.92
2018-06-22T13:59:15.683Z,1012.06
2018-06-22T14:00:25.668Z,1011.96
2018-06-22T14:01:35.653Z,1011.85
2018-06-22T14:02:45.824Z,1011.89
2018-06-22T14:03:55.833Z,1011.86
2018-06-22T14:05:05.661Z,1011.96
2018-06-22T14:06:15.639Z,1011.88
2018-06-22T14:07:25.634Z,1011.89
2018-06-22T14:08:35.627Z,1011.83